sensor_id;sensor_type;location;lat;lon;timestamp;temperature;humidity
4960;DHT22;2495;48.200;11.532;2022-11-02T00:02:48;14.30;81.40
4960;DHT22;2495;48.200;11.532;2022-11-02T00:07:56;14.20;81.70
4960;DHT22;2495;48.200;11.532;2022-11-02T00:13:03;14.20;82.20
4960;DHT22;2495;48.200;11.532;2022-11-02T00:18:07;14.20;81.30
4960;DHT22;2495;48.200;11.532;2022-11-02T00:23:09;14.10;81.60
4960;DHT22;2495;48.200;11.532;2022-11-02T00:28:11;14.10;81.70
4960;DHT22;2495;48.200;11.532;2022-11-02T00:33:13;14.10;81.70
4960;DHT22;2495;48.200;11.532;2022-11-02T00:38:15;14.00;81.60
4960;DHT22;2495;48.200;11.532;2022-11-02T00:43:20;14.00;81.80
4960;DHT22;2495;48.200;11.532;2022-11-02T00:59:02;13.90;82.60
4960;DHT22;2495;48.200;11.532;2022-11-02T06:10:25;13.30;85.60
4960;DHT22;2495;48.200;11.532;2022-11-02T06:15:26;13.30;85.20
4960;DHT22;2495;48.200;11.532;2022-11-02T06:20:28;13.30;85.30
4960;DHT22;2495;48.200;11.532;2022-11-02T06:25:55;13.30;84.50
4960;DHT22;2495;48.200;11.532;2022-11-02T06:30:59;13.30;85.50
4960;DHT22;2495;48.200;11.532;2022-11-02T15:23:40;17.20;64.30
4960;DHT22;2495;48.200;11.532;2022-11-02T15:36:04;17.20;64.30
4960;DHT22;2495;48.200;11.532;2022-11-02T19:21:46;13.60;75.40
4960;DHT22;2495;48.200;11.532;2022-11-02T19:26:48;13.60;75.40
4960;DHT22;2495;48.200;11.532;2022-11-02T19:31:50;13.60;75.10
4960;DHT22;2495;48.200;11.532;2022-11-02T19:36:52;13.60;75.40
4960;DHT22;2495;48.200;11.532;2022-11-02T19:41:54;13.40;75.40
4960;DHT22;2495;48.200;11.532;2022-11-02T19:46:56;13.30;75.00
4960;DHT22;2495;48.200;11.532;2022-11-02T19:51:57;13.30;74.80
4960;DHT22;2495;48.200;11.532;2022-11-02T19:56:59;13.30;75.30
4960;DHT22;2495;48.200;11.532;2022-11-02T20:02:00;13.30;75.30
4960;DHT22;2495;48.200;11.532;2022-11-02T20:07:02;13.20;75.70
4960;DHT22;2495;48.200;11.532;2022-11-02T20:12:03;13.20;75.60
4960;DHT22;2495;48.200;11.532;2022-11-02T20:17:05;13.10;76.00
4960;DHT22;2495;48.200;11.532;2022-11-02T20:22:07;13.20;76.20
4960;DHT22;2495;48.200;11.532;2022-11-02T20:27:08;13.10;76.10
4960;DHT22;2495;48.200;11.532;2022-11-02T20:32:16;13.10;76.30
4960;DHT22;2495;48.200;11.532;2022-11-02T20:37:18;13.00;76.80
4960;DHT22;2495;48.200;11.532;2022-11-02T20:42:20;13.00;75.70
4960;DHT22;2495;48.200;11.532;2022-11-02T20:47:24;13.00;76.50
4960;DHT22;2495;48.200;11.532;2022-11-02T20:52:26;12.90;75.60
4960;DHT22;2495;48.200;11.532;2022-11-02T20:57:28;12.90;76.50
4960;DHT22;2495;48.200;11.532;2022-11-02T21:02:29;12.80;76.40
4960;DHT22;2495;48.200;11.532;2022-11-02T21:07:31;12.70;76.40
4960;DHT22;2495;48.200;11.532;2022-11-02T21:12:32;12.60;76.60
4960;DHT22;2495;48.200;11.532;2022-11-02T21:17:52;12.50;76.80
4960;DHT22;2495;48.200;11.532;2022-11-02T21:22:53;12.50;77.20
4960;DHT22;2495;48.200;11.532;2022-11-02T21:27:58;12.40;77.10
4960;DHT22;2495;48.200;11.532;2022-11-02T21:33:00;12.40;77.90
4960;DHT22;2495;48.200;11.532;2022-11-02T21:38:01;12.40;77.80
4960;DHT22;2495;48.200;11.532;2022-11-02T21:43:03;12.30;77.90
4960;DHT22;2495;48.200;11.532;2022-11-02T21:48:08;12.30;77.60
4960;DHT22;2495;48.200;11.532;2022-11-02T21:53:11;12.20;78.10
4960;DHT22;2495;48.200;11.532;2022-11-02T21:58:14;12.10;77.50
4960;DHT22;2495;48.200;11.532;2022-11-02T22:03:15;12.10;77.70
4960;DHT22;2495;48.200;11.532;2022-11-02T22:08:17;12.00;77.80
4960;DHT22;2495;48.200;11.532;2022-11-02T22:13:46;12.00;78.00
4960;DHT22;2495;48.200;11.532;2022-11-02T22:18:48;11.90;78.30
4960;DHT22;2495;48.200;11.532;2022-11-02T22:23:50;11.80;78.80
4960;DHT22;2495;48.200;11.532;2022-11-02T22:28:52;11.70;78.50
4960;DHT22;2495;48.200;11.532;2022-11-02T22:33:57;11.60;78.50
4960;DHT22;2495;48.200;11.532;2022-11-02T22:39:02;11.60;78.30
4960;DHT22;2495;48.200;11.532;2022-11-02T22:44:15;11.70;79.80
4960;DHT22;2495;48.200;11.532;2022-11-02T22:49:16;11.80;79.20
4960;DHT22;2495;48.200;11.532;2022-11-02T22:54:18;11.70;78.40
4960;DHT22;2495;48.200;11.532;2022-11-02T22:59:19;11.60;78.50
4960;DHT22;2495;48.200;11.532;2022-11-02T23:04:26;11.50;78.80
4960;DHT22;2495;48.200;11.532;2022-11-02T23:09:27;11.40;78.80
4960;DHT22;2495;48.200;11.532;2022-11-02T23:14:32;11.30;78.80
4960;DHT22;2495;48.200;11.532;2022-11-02T23:19:34;11.20;78.80
4960;DHT22;2495;48.200;11.532;2022-11-02T23:24:39;11.20;79.00
4960;DHT22;2495;48.200;11.532;2022-11-02T23:29:58;11.10;79.50
4960;DHT22;2495;48.200;11.532;2022-11-02T23:35:18;11.10;79.40
4960;DHT22;2495;48.200;11.532;2022-11-02T23:40:38;11.00;79.30
4960;DHT22;2495;48.200;11.532;2022-11-02T23:45:45;11.00;79.30
4960;DHT22;2495;48.200;11.532;2022-11-02T23:50:46;11.00;79.20
4960;DHT22;2495;48.200;11.532;2022-11-02T23:56:12;10.90;79.40
